sensor_id;sensor_type;location;lat;lon;timestamp;P1;durP1;ratioP1;P2;durP2;ratioP2
31061;SDS011;17724;53.546;9.974;2023-07-20T00:03:13;5.27;;;1.47;;
31061;SDS011;17724;53.546;9.974;2023-07-20T00:07:19;4.10;;;1.40;;
31061;SDS011;17724;53.546;9.974;2023-07-20T00:11:20;4.97;;;1.60;;
31061;SDS011;17724;53.546;9.974;2023-07-20T00:15:20;4.27;;;1.50;;
31061;SDS011;17724;53.546;9.974;2023-07-20T00:19:24;4.47;;;1.40;;
31061;SDS011;17724;53.546;9.974;2023-07-20T00:23:26;4.20;;;1.20;;
31061;SDS011;17724;53.546;9.974;2023-07-20T00:27:26;4.47;;;1.37;;
31061;SDS011;17724;53.546;9.974;2023-07-20T00:31:27;4.53;;;1.50;;
31061;SDS011;17724;53.546;9.974;2023-07-20T00:35:30;4.10;;;1.30;;
31061;SDS011;17724;53.546;9.974;2023-07-20T00:39:31;4.67;;;1.50;;
31061;SDS011;17724;53.546;9.974;2023-07-20T00:43:33;4.30;;;1.47;;
31061;SDS011;17724;53.546;9.974;2023-07-20T00:47:33;4.27;;;1.30;;
31061;SDS011;17724;53.546;9.974;2023-07-20T00:51:34;5.33;;;1.40;;
31061;SDS011;17724;53.546;9.974;2023-07-20T00:55:36;5.93;;;1.60;;
31061;SDS011;17724;53.546;9.974;2023-07-20T00:59:36;6.20;;;1.90;;
31061;SDS011;17724;53.546;9.974;2023-07-20T01:03:37;4.57;;;1.57;;
31061;SDS011;17724;53.546;9.974;2023-07-20T01:07:49;4.20;;;1.80;;
31061;SDS011;17724;53.546;9.974;2023-07-20T01:16:03;4.60;;;2.00;;
31061;SDS011;17724;53.546;9.974;2023-07-20T01:20:04;7.00;;;2.10;;
31061;SDS011;17724;53.546;9.974;2023-07-20T01:32:55;4.60;;;1.87;;
31061;SDS011;17724;53.546;9.974;2023-07-20T01:36:58;4.53;;;2.07;;
31061;SDS011;17724;53.546;9.974;2023-07-20T01:41:01;4.70;;;1.93;;
31061;SDS011;17724;53.546;9.974;2023-07-20T01:45:02;4.80;;;2.13;;
31061;SDS011;17724;53.546;9.974;2023-07-20T01:49:03;6.00;;;1.67;;
31061;SDS011;17724;53.546;9.974;2023-07-20T01:53:05;4.83;;;2.07;;
31061;SDS011;17724;53.546;9.974;2023-07-20T01:57:06;5.30;;;2.80;;
31061;SDS011;17724;53.546;9.974;2023-07-20T02:01:06;5.93;;;2.97;;
31061;SDS011;17724;53.546;9.974;2023-07-20T02:05:07;5.23;;;2.40;;
31061;SDS011;17724;53.546;9.974;2023-07-20T02:09:08;5.07;;;2.73;;
31061;SDS011;17724;53.546;9.974;2023-07-20T02:13:09;8.10;;;3.27;;
31061;SDS011;17724;53.546;9.974;2023-07-20T02:17:09;5.03;;;2.90;;
31061;SDS011;17724;53.546;9.974;2023-07-20T02:21:11;5.10;;;2.20;;
31061;SDS011;17724;53.546;9.974;2023-07-20T02:25:11;5.00;;;2.30;;
31061;SDS011;17724;53.546;9.974;2023-07-20T02:29:11;4.40;;;1.70;;
31061;SDS011;17724;53.546;9.974;2023-07-20T02:33:12;5.63;;;1.97;;
31061;SDS011;17724;53.546;9.974;2023-07-20T02:37:13;5.60;;;1.67;;
31061;SDS011;17724;53.546;9.974;2023-07-20T02:41:14;5.33;;;1.87;;
31061;SDS011;17724;53.546;9.974;2023-07-20T02:45:15;5.40;;;1.93;;
31061;SDS011;17724;53.546;9.974;2023-07-20T02:49:16;5.10;;;2.00;;
31061;SDS011;17724;53.546;9.974;2023-07-20T02:53:17;5.17;;;2.03;;
31061;SDS011;17724;53.546;9.974;2023-07-20T02:57:18;5.33;;;2.03;;
31061;SDS011;17724;53.546;9.974;2023-07-20T03:01:18;5.40;;;2.07;;
31061;SDS011;17724;53.546;9.974;2023-07-20T03:05:19;5.90;;;2.80;;
31061;SDS011;17724;53.546;9.974;2023-07-20T03:09:19;5.30;;;2.10;;
31061;SDS011;17724;53.546;9.974;2023-07-20T03:13:20;5.23;;;1.80;;
31061;SDS011;17724;53.546;9.974;2023-07-20T03:17:20;4.60;;;1.77;;
31061;SDS011;17724;53.546;9.974;2023-07-20T03:21:21;4.60;;;1.80;;
31061;SDS011;17724;53.546;9.974;2023-07-20T03:25:21;4.37;;;1.63;;
31061;SDS011;17724;53.546;9.974;2023-07-20T03:29:23;5.33;;;1.50;;
31061;SDS011;17724;53.546;9.974;2023-07-20T03:33:24;4.07;;;1.27;;
31061;SDS011;17724;53.546;9.974;2023-07-20T03:37:26;15.47;;;14.03;;
31061;SDS011;17724;53.546;9.974;2023-07-20T03:41:26;4.20;;;1.40;;
31061;SDS011;17724;53.546;9.974;2023-07-20T03:45:27;4.93;;;1.60;;
31061;SDS011;17724;53.546;9.974;2023-07-20T03:49:27;6.03;;;1.87;;
31061;SDS011;17724;53.546;9.974;2023-07-20T03:53:28;4.50;;;1.90;;
31061;SDS011;17724;53.546;9.974;2023-07-20T03:57:28;4.70;;;1.80;;
31061;SDS011;17724;53.546;9.974;2023-07-20T04:01:29;5.00;;;2.17;;
31061;SDS011;17724;53.546;9.974;2023-07-20T04:05:30;6.23;;;3.30;;
31061;SDS011;17724;53.546;9.974;2023-07-20T04:09:31;5.10;;;2.83;;
31061;SDS011;17724;53.546;9.974;2023-07-20T04:13:32;5.80;;;3.67;;
31061;SDS011;17724;53.546;9.974;2023-07-20T04:17:35;5.80;;;2.57;;
31061;SDS011;17724;53.546;9.974;2023-07-20T04:21:39;4.90;;;2.57;;
31061;SDS011;17724;53.546;9.974;2023-07-20T04:25:44;5.27;;;2.77;;
31061;SDS011;17724;53.546;9.974;2023-07-20T04:29:46;5.03;;;2.50;;
31061;SDS011;17724;53.546;9.974;2023-07-20T04:33:47;5.70;;;2.33;;
31061;SDS011;17724;53.546;9.974;2023-07-20T04:37:48;5.43;;;2.10;;
31061;SDS011;17724;53.546;9.974;2023-07-20T04:41:51;4.40;;;1.87;;
31061;SDS011;17724;53.546;9.974;2023-07-20T04:45:52;5.00;;;2.30;;
31061;SDS011;17724;53.546;9.974;2023-07-20T04:49:53;4.77;;;1.80;;
31061;SDS011;17724;53.546;9.974;2023-07-20T04:53:54;6.40;;;2.00;;
31061;SDS011;17724;53.546;9.974;2023-07-20T04:57:54;5.20;;;2.47;;
31061;SDS011;17724;53.546;9.974;2023-07-20T05:01:57;4.90;;;2.10;;
31061;SDS011;17724;53.546;9.974;2023-07-20T05:05:58;4.90;;;2.30;;
31061;SDS011;17724;53.546;9.974;2023-07-20T05:09:58;5.13;;;2.50;;
31061;SDS011;17724;53.546;9.974;2023-07-20T05:13:59;5.80;;;3.10;;
31061;SDS011;17724;53.546;9.974;2023-07-20T05:18:00;5.07;;;2.63;;
31061;SDS011;17724;53.546;9.974;2023-07-20T05:22:02;5.33;;;2.97;;
31061;SDS011;17724;53.546;9.974;2023-07-20T05:26:03;6.53;;;3.33;;
31061;SDS011;17724;53.546;9.974;2023-07-20T05:30:04;7.03;;;3.57;;
31061;SDS011;17724;53.546;9.974;2023-07-20T05:34:05;5.63;;;3.03;;
31061;SDS011;17724;53.546;9.974;2023-07-20T05:38:05;5.20;;;3.10;;
31061;SDS011;17724;53.546;9.974;2023-07-20T05:42:06;5.83;;;2.90;;
31061;SDS011;17724;53.546;9.974;2023-07-20T05:46:07;5.30;;;3.30;;
31061;SDS011;17724;53.546;9.974;2023-07-20T05:50:07;5.97;;;3.20;;
31061;SDS011;17724;53.546;9.974;2023-07-20T05:54:09;6.87;;;3.70;;
31061;SDS011;17724;53.546;9.974;2023-07-20T05:58:09;5.90;;;3.37;;
31061;SDS011;17724;53.546;9.974;2023-07-20T06:02:10;7.30;;;4.47;;
31061;SDS011;17724;53.546;9.974;2023-07-20T06:06:11;6.47;;;4.30;;
31061;SDS011;17724;53.546;9.974;2023-07-20T06:10:12;5.90;;;3.87;;
31061;SDS011;17724;53.546;9.974;2023-07-20T06:14:13;5.37;;;3.03;;
31061;SDS011;17724;53.546;9.974;2023-07-20T06:18:14;5.83;;;2.60;;
31061;SDS011;17724;53.546;9.974;2023-07-20T06:22:14;6.30;;;2.20;;
31061;SDS011;17724;53.546;9.974;2023-07-20T06:26:15;4.60;;;1.80;;
31061;SDS011;17724;53.546;9.974;2023-07-20T06:30:16;5.10;;;2.00;;
31061;SDS011;17724;53.546;9.974;2023-07-20T06:34:17;7.47;;;1.90;;
31061;SDS011;17724;53.546;9.974;2023-07-20T06:38:18;4.97;;;1.77;;
31061;SDS011;17724;53.546;9.974;2023-07-20T06:42:18;5.70;;;1.83;;
31061;SDS011;17724;53.546;9.974;2023-07-20T06:46:19;4.70;;;1.40;;
31061;SDS011;17724;53.546;9.974;2023-07-20T06:50:19;4.90;;;1.30;;
31061;SDS011;17724;53.546;9.974;2023-07-20T06:54:20;4.10;;;1.27;;
31061;SDS011;17724;53.546;9.974;2023-07-20T06:58:21;4.20;;;1.30;;
31061;SDS011;17724;53.546;9.974;2023-07-20T07:02:22;5.40;;;1.20;;
31061;SDS011;17724;53.546;9.974;2023-07-20T07:06:22;5.17;;;1.27;;
31061;SDS011;17724;53.546;9.974;2023-07-20T07:10:23;3.90;;;1.00;;
31061;SDS011;17724;53.546;9.974;2023-07-20T07:14:23;5.63;;;1.50;;
31061;SDS011;17724;53.546;9.974;2023-07-20T07:18:24;5.80;;;1.60;;
31061;SDS011;17724;53.546;9.974;2023-07-20T07:22:25;4.67;;;1.20;;
31061;SDS011;17724;53.546;9.974;2023-07-20T07:26:26;7.30;;;1.73;;
31061;SDS011;17724;53.546;9.974;2023-07-20T07:30:26;6.57;;;1.43;;
31061;SDS011;17724;53.546;9.974;2023-07-20T07:34:27;13.33;;;8.60;;
31061;SDS011;17724;53.546;9.974;2023-07-20T07:38:27;5.77;;;2.17;;
31061;SDS011;17724;53.546;9.974;2023-07-20T07:42:28;4.97;;;1.30;;
31061;SDS011;17724;53.546;9.974;2023-07-20T07:46:29;6.87;;;1.40;;
31061;SDS011;17724;53.546;9.974;2023-07-20T07:50:30;5.53;;;1.70;;
31061;SDS011;17724;53.546;9.974;2023-07-20T07:54:30;6.73;;;1.63;;
31061;SDS011;17724;53.546;9.974;2023-07-20T07:58:31;6.40;;;1.93;;
31061;SDS011;17724;53.546;9.974;2023-07-20T08:02:31;7.83;;;1.60;;
31061;SDS011;17724;53.546;9.974;2023-07-20T08:06:32;5.50;;;1.53;;
31061;SDS011;17724;53.546;9.974;2023-07-20T08:10:32;6.37;;;1.77;;
31061;SDS011;17724;53.546;9.974;2023-07-20T08:14:33;5.83;;;1.60;;
31061;SDS011;17724;53.546;9.974;2023-07-20T08:18:34;6.30;;;1.87;;
31061;SDS011;17724;53.546;9.974;2023-07-20T08:22:34;6.03;;;1.90;;
31061;SDS011;17724;53.546;9.974;2023-07-20T08:26:35;4.50;;;1.53;;
31061;SDS011;17724;53.546;9.974;2023-07-20T08:30:42;7.90;;;2.20;;
31061;SDS011;17724;53.546;9.974;2023-07-20T08:34:44;5.80;;;1.93;;
31061;SDS011;17724;53.546;9.974;2023-07-20T08:38:44;6.47;;;2.20;;
31061;SDS011;17724;53.546;9.974;2023-07-20T08:42:45;6.67;;;2.20;;
31061;SDS011;17724;53.546;9.974;2023-07-20T08:46:46;5.73;;;2.20;;
31061;SDS011;17724;53.546;9.974;2023-07-20T08:50:52;6.77;;;2.37;;
31061;SDS011;17724;53.546;9.974;2023-07-20T08:54:53;10.10;;;3.67;;
31061;SDS011;17724;53.546;9.974;2023-07-20T08:58:54;6.27;;;2.13;;
31061;SDS011;17724;53.546;9.974;2023-07-20T09:02:55;6.47;;;2.83;;
31061;SDS011;17724;53.546;9.974;2023-07-20T09:06:57;7.07;;;1.90;;
31061;SDS011;17724;53.546;9.974;2023-07-20T09:10:58;6.13;;;2.10;;
31061;SDS011;17724;53.546;9.974;2023-07-20T09:14:58;7.10;;;2.70;;
31061;SDS011;17724;53.546;9.974;2023-07-20T09:18:59;7.40;;;1.60;;
31061;SDS011;17724;53.546;9.974;2023-07-20T09:22:59;7.37;;;1.97;;
31061;SDS011;17724;53.546;9.974;2023-07-20T09:27:04;6.13;;;1.70;;
31061;SDS011;17724;53.546;9.974;2023-07-20T09:31:08;6.23;;;1.90;;
31061;SDS011;17724;53.546;9.974;2023-07-20T09:35:18;4.73;;;1.30;;
31061;SDS011;17724;53.546;9.974;2023-07-20T09:39:20;6.53;;;1.73;;
31061;SDS011;17724;53.546;9.974;2023-07-20T09:43:21;5.77;;;1.30;;
31061;SDS011;17724;53.546;9.974;2023-07-20T09:47:22;4.47;;;1.13;;
31061;SDS011;17724;53.546;9.974;2023-07-20T09:51:23;6.10;;;1.40;;
31061;SDS011;17724;53.546;9.974;2023-07-20T09:55:25;4.43;;;1.40;;
31061;SDS011;17724;53.546;9.974;2023-07-20T09:59:26;5.00;;;1.20;;
31061;SDS011;17724;53.546;9.974;2023-07-20T10:03:28;4.40;;;1.00;;
31061;SDS011;17724;53.546;9.974;2023-07-20T10:07:30;5.33;;;1.20;;
31061;SDS011;17724;53.546;9.974;2023-07-20T10:11:35;30.03;;;13.63;;
31061;SDS011;17724;53.546;9.974;2023-07-20T10:15:43;21.00;;;11.10;;
31061;SDS011;17724;53.546;9.974;2023-07-20T10:19:51;21.10;;;8.30;;
31061;SDS011;17724;53.546;9.974;2023-07-20T10:23:58;25.43;;;12.63;;
31061;SDS011;17724;53.546;9.974;2023-07-20T10:27:59;10.13;;;4.50;;
31061;SDS011;17724;53.546;9.974;2023-07-20T10:32:00;21.60;;;10.23;;
31061;SDS011;17724;53.546;9.974;2023-07-20T10:36:02;10.87;;;4.33;;
31061;SDS011;17724;53.546;9.974;2023-07-20T10:44:27;9.80;;;2.83;;
31061;SDS011;17724;53.546;9.974;2023-07-20T10:48:28;7.80;;;2.73;;
31061;SDS011;17724;53.546;9.974;2023-07-20T10:52:39;10.50;;;4.57;;
31061;SDS011;17724;53.546;9.974;2023-07-20T10:56:40;9.17;;;3.60;;
31061;SDS011;17724;53.546;9.974;2023-07-20T11:05:01;28.30;;;16.53;;
31061;SDS011;17724;53.546;9.974;2023-07-20T11:09:04;9.03;;;3.67;;
31061;SDS011;17724;53.546;9.974;2023-07-20T11:13:18;9.23;;;2.20;;
31061;SDS011;17724;53.546;9.974;2023-07-20T11:17:19;10.00;;;3.53;;
31061;SDS011;17724;53.546;9.974;2023-07-20T11:21:22;9.57;;;3.33;;
31061;SDS011;17724;53.546;9.974;2023-07-20T11:25:23;9.70;;;3.57;;
31061;SDS011;17724;53.546;9.974;2023-07-20T11:29:23;13.63;;;12.20;;
31061;SDS011;17724;53.546;9.974;2023-07-20T11:33:27;40.00;;;32.90;;
31061;SDS011;17724;53.546;9.974;2023-07-20T11:37:28;20.50;;;14.30;;
31061;SDS011;17724;53.546;9.974;2023-07-20T11:41:28;12.83;;;6.97;;
31061;SDS011;17724;53.546;9.974;2023-07-20T11:45:29;13.73;;;6.93;;
31061;SDS011;17724;53.546;9.974;2023-07-20T11:49:40;11.57;;;6.93;;
31061;SDS011;17724;53.546;9.974;2023-07-20T11:53:43;15.97;;;10.97;;
31061;SDS011;17724;53.546;9.974;2023-07-20T11:58:04;24.90;;;13.67;;
31061;SDS011;17724;53.546;9.974;2023-07-20T12:02:06;24.37;;;16.87;;
31061;SDS011;17724;53.546;9.974;2023-07-20T12:06:07;15.10;;;7.13;;
31061;SDS011;17724;53.546;9.974;2023-07-20T12:10:09;13.77;;;8.50;;
31061;SDS011;17724;53.546;9.974;2023-07-20T12:14:11;13.73;;;6.83;;
31061;SDS011;17724;53.546;9.974;2023-07-20T12:18:12;13.40;;;7.30;;
31061;SDS011;17724;53.546;9.974;2023-07-20T12:22:12;13.83;;;6.03;;
31061;SDS011;17724;53.546;9.974;2023-07-20T12:26:13;13.50;;;6.33;;
31061;SDS011;17724;53.546;9.974;2023-07-20T12:30:15;16.27;;;10.20;;
31061;SDS011;17724;53.546;9.974;2023-07-20T12:34:16;21.53;;;13.37;;
31061;SDS011;17724;53.546;9.974;2023-07-20T12:38:16;15.87;;;8.37;;
31061;SDS011;17724;53.546;9.974;2023-07-20T12:42:17;27.07;;;15.20;;
31061;SDS011;17724;53.546;9.974;2023-07-20T12:46:17;9.97;;;4.67;;
31061;SDS011;17724;53.546;9.974;2023-07-20T12:50:18;15.50;;;8.07;;
31061;SDS011;17724;53.546;9.974;2023-07-20T12:54:18;14.67;;;6.97;;
31061;SDS011;17724;53.546;9.974;2023-07-20T12:58:19;12.60;;;4.27;;
31061;SDS011;17724;53.546;9.974;2023-07-20T13:02:19;23.43;;;11.17;;
31061;SDS011;17724;53.546;9.974;2023-07-20T13:06:20;22.93;;;13.53;;
31061;SDS011;17724;53.546;9.974;2023-07-20T13:10:21;9.53;;;4.60;;
31061;SDS011;17724;53.546;9.974;2023-07-20T13:14:22;9.60;;;4.30;;
31061;SDS011;17724;53.546;9.974;2023-07-20T13:18:22;9.53;;;5.00;;
31061;SDS011;17724;53.546;9.974;2023-07-20T13:22:23;9.60;;;4.20;;
31061;SDS011;17724;53.546;9.974;2023-07-20T13:26:23;8.93;;;4.20;;
31061;SDS011;17724;53.546;9.974;2023-07-20T13:30:24;9.60;;;4.67;;
31061;SDS011;17724;53.546;9.974;2023-07-20T13:34:25;5.70;;;2.40;;
31061;SDS011;17724;53.546;9.974;2023-07-20T13:38:26;10.57;;;4.73;;
31061;SDS011;17724;53.546;9.974;2023-07-20T13:42:26;5.00;;;2.10;;
31061;SDS011;17724;53.546;9.974;2023-07-20T13:46:27;5.70;;;2.50;;
31061;SDS011;17724;53.546;9.974;2023-07-20T13:50:28;6.10;;;1.43;;
31061;SDS011;17724;53.546;9.974;2023-07-20T13:54:28;6.70;;;3.10;;
31061;SDS011;17724;53.546;9.974;2023-07-20T13:58:29;5.20;;;1.60;;
31061;SDS011;17724;53.546;9.974;2023-07-20T14:02:29;5.60;;;2.30;;
31061;SDS011;17724;53.546;9.974;2023-07-20T14:06:30;12.67;;;6.10;;
31061;SDS011;17724;53.546;9.974;2023-07-20T14:10:32;9.23;;;4.37;;
31061;SDS011;17724;53.546;9.974;2023-07-20T14:14:32;5.73;;;2.33;;
31061;SDS011;17724;53.546;9.974;2023-07-20T14:18:33;8.63;;;4.83;;
31061;SDS011;17724;53.546;9.974;2023-07-20T14:22:34;4.10;;;0.90;;
31061;SDS011;17724;53.546;9.974;2023-07-20T14:26:34;7.70;;;3.67;;
31061;SDS011;17724;53.546;9.974;2023-07-20T14:30:35;9.07;;;2.90;;
31061;SDS011;17724;53.546;9.974;2023-07-20T14:34:36;6.70;;;3.33;;
31061;SDS011;17724;53.546;9.974;2023-07-20T14:38:36;5.37;;;2.13;;
31061;SDS011;17724;53.546;9.974;2023-07-20T14:42:37;4.70;;;1.30;;
31061;SDS011;17724;53.546;9.974;2023-07-20T14:46:38;6.53;;;2.33;;
31061;SDS011;17724;53.546;9.974;2023-07-20T14:50:38;6.37;;;1.93;;
31061;SDS011;17724;53.546;9.974;2023-07-20T14:54:39;7.37;;;1.93;;
31061;SDS011;17724;53.546;9.974;2023-07-20T14:58:39;4.70;;;1.77;;
31061;SDS011;17724;53.546;9.974;2023-07-20T15:02:40;5.73;;;2.33;;
31061;SDS011;17724;53.546;9.974;2023-07-20T15:06:41;9.50;;;3.20;;
31061;SDS011;17724;53.546;9.974;2023-07-20T15:10:41;17.13;;;13.50;;
31061;SDS011;17724;53.546;9.974;2023-07-20T15:14:43;6.40;;;4.30;;
31061;SDS011;17724;53.546;9.974;2023-07-20T15:18:44;9.87;;;6.50;;
31061;SDS011;17724;53.546;9.974;2023-07-20T15:22:44;15.90;;;6.93;;
31061;SDS011;17724;53.546;9.974;2023-07-20T15:26:45;15.30;;;8.30;;
31061;SDS011;17724;53.546;9.974;2023-07-20T15:30:45;21.33;;;14.33;;
31061;SDS011;17724;53.546;9.974;2023-07-20T15:34:46;33.97;;;30.40;;
31061;SDS011;17724;53.546;9.974;2023-07-20T15:38:47;23.87;;;13.90;;
31061;SDS011;17724;53.546;9.974;2023-07-20T15:42:47;11.20;;;5.90;;
31061;SDS011;17724;53.546;9.974;2023-07-20T15:46:48;8.40;;;3.00;;
31061;SDS011;17724;53.546;9.974;2023-07-20T15:50:49;12.27;;;6.23;;
31061;SDS011;17724;53.546;9.974;2023-07-20T15:54:51;18.40;;;10.13;;
31061;SDS011;17724;53.546;9.974;2023-07-20T15:58:52;14.90;;;8.90;;
31061;SDS011;17724;53.546;9.974;2023-07-20T16:02:53;24.60;;;19.20;;
31061;SDS011;17724;53.546;9.974;2023-07-20T16:06:53;14.80;;;7.00;;
31061;SDS011;17724;53.546;9.974;2023-07-20T16:10:54;17.00;;;12.87;;
31061;SDS011;17724;53.546;9.974;2023-07-20T16:14:57;25.50;;;22.87;;
31061;SDS011;17724;53.546;9.974;2023-07-20T16:18:57;44.03;;;35.00;;
31061;SDS011;17724;53.546;9.974;2023-07-20T16:22:58;22.70;;;15.57;;
31061;SDS011;17724;53.546;9.974;2023-07-20T16:26:59;10.60;;;4.60;;
31061;SDS011;17724;53.546;9.974;2023-07-20T16:30:59;15.70;;;10.63;;
31061;SDS011;17724;53.546;9.974;2023-07-20T16:35:00;19.80;;;13.50;;
31061;SDS011;17724;53.546;9.974;2023-07-20T16:39:01;53.43;;;43.17;;
31061;SDS011;17724;53.546;9.974;2023-07-20T16:43:04;58.17;;;50.43;;
31061;SDS011;17724;53.546;9.974;2023-07-20T16:47:05;21.73;;;15.87;;
31061;SDS011;17724;53.546;9.974;2023-07-20T16:51:06;18.47;;;11.23;;
31061;SDS011;17724;53.546;9.974;2023-07-20T16:55:06;89.57;;;80.93;;
31061;SDS011;17724;53.546;9.974;2023-07-20T16:59:07;104.30;;;93.70;;
31061;SDS011;17724;53.546;9.974;2023-07-20T17:03:07;37.60;;;33.80;;
31061;SDS011;17724;53.546;9.974;2023-07-20T17:07:08;43.67;;;38.93;;
31061;SDS011;17724;53.546;9.974;2023-07-20T17:11:08;53.83;;;48.50;;
31061;SDS011;17724;53.546;9.974;2023-07-20T17:15:09;20.47;;;12.77;;
31061;SDS011;17724;53.546;9.974;2023-07-20T17:19:10;25.60;;;22.90;;
31061;SDS011;17724;53.546;9.974;2023-07-20T17:23:10;11.17;;;7.07;;
31061;SDS011;17724;53.546;9.974;2023-07-20T17:27:11;37.10;;;27.47;;
31061;SDS011;17724;53.546;9.974;2023-07-20T17:31:12;30.90;;;19.27;;
31061;SDS011;17724;53.546;9.974;2023-07-20T17:35:12;34.13;;;29.83;;
31061;SDS011;17724;53.546;9.974;2023-07-20T17:39:13;48.27;;;38.90;;
31061;SDS011;17724;53.546;9.974;2023-07-20T17:43:13;26.10;;;18.27;;
31061;SDS011;17724;53.546;9.974;2023-07-20T17:47:15;22.07;;;12.80;;
31061;SDS011;17724;53.546;9.974;2023-07-20T17:51:16;29.60;;;24.10;;
31061;SDS011;17724;53.546;9.974;2023-07-20T17:55:16;35.20;;;31.10;;
31061;SDS011;17724;53.546;9.974;2023-07-20T17:59:17;22.67;;;15.30;;
31061;SDS011;17724;53.546;9.974;2023-07-20T18:03:17;41.17;;;32.40;;
31061;SDS011;17724;53.546;9.974;2023-07-20T18:07:18;55.23;;;49.73;;
31061;SDS011;17724;53.546;9.974;2023-07-20T18:11:18;20.23;;;13.77;;
31061;SDS011;17724;53.546;9.974;2023-07-20T18:15:22;16.87;;;9.87;;
31061;SDS011;17724;53.546;9.974;2023-07-20T18:19:22;18.87;;;11.50;;
31061;SDS011;17724;53.546;9.974;2023-07-20T18:23:23;32.13;;;20.70;;
31061;SDS011;17724;53.546;9.974;2023-07-20T18:27:24;27.73;;;21.13;;
31061;SDS011;17724;53.546;9.974;2023-07-20T18:31:25;12.47;;;8.73;;
31061;SDS011;17724;53.546;9.974;2023-07-20T18:35:26;21.10;;;16.70;;
31061;SDS011;17724;53.546;9.974;2023-07-20T18:39:29;53.97;;;47.03;;
31061;SDS011;17724;53.546;9.974;2023-07-20T18:43:30;19.73;;;11.37;;
31061;SDS011;17724;53.546;9.974;2023-07-20T18:47:31;25.53;;;13.43;;
31061;SDS011;17724;53.546;9.974;2023-07-20T18:51:31;34.03;;;16.70;;
31061;SDS011;17724;53.546;9.974;2023-07-20T18:55:33;30.67;;;17.57;;
31061;SDS011;17724;53.546;9.974;2023-07-20T18:59:34;22.17;;;11.50;;
31061;SDS011;17724;53.546;9.974;2023-07-20T19:03:35;23.80;;;12.63;;
31061;SDS011;17724;53.546;9.974;2023-07-20T19:07:35;33.53;;;15.20;;
31061;SDS011;17724;53.546;9.974;2023-07-20T19:11:36;21.60;;;12.00;;
31061;SDS011;17724;53.546;9.974;2023-07-20T19:15:36;8.20;;;2.53;;
31061;SDS011;17724;53.546;9.974;2023-07-20T19:19:37;17.60;;;10.40;;
31061;SDS011;17724;53.546;9.974;2023-07-20T19:23:38;33.03;;;17.77;;
31061;SDS011;17724;53.546;9.974;2023-07-20T19:27:41;35.90;;;24.50;;
31061;SDS011;17724;53.546;9.974;2023-07-20T19:31:44;43.93;;;38.83;;
31061;SDS011;17724;53.546;9.974;2023-07-20T19:35:44;55.07;;;45.53;;
31061;SDS011;17724;53.546;9.974;2023-07-20T19:39:45;25.50;;;18.43;;
31061;SDS011;17724;53.546;9.974;2023-07-20T19:43:45;56.67;;;43.40;;
31061;SDS011;17724;53.546;9.974;2023-07-20T19:47:46;37.63;;;24.70;;
31061;SDS011;17724;53.546;9.974;2023-07-20T19:51:46;45.40;;;32.87;;
31061;SDS011;17724;53.546;9.974;2023-07-20T19:55:47;24.27;;;16.97;;
31061;SDS011;17724;53.546;9.974;2023-07-20T19:59:47;32.03;;;23.10;;
31061;SDS011;17724;53.546;9.974;2023-07-20T20:03:48;33.83;;;25.77;;
31061;SDS011;17724;53.546;9.974;2023-07-20T20:07:49;15.87;;;11.80;;
31061;SDS011;17724;53.546;9.974;2023-07-20T20:11:50;52.77;;;44.10;;
31061;SDS011;17724;53.546;9.974;2023-07-20T20:15:50;17.77;;;12.80;;
31061;SDS011;17724;53.546;9.974;2023-07-20T20:19:51;42.67;;;37.27;;
31061;SDS011;17724;53.546;9.974;2023-07-20T20:23:52;97.27;;;86.77;;
31061;SDS011;17724;53.546;9.974;2023-07-20T20:27:53;31.33;;;25.37;;
31061;SDS011;17724;53.546;9.974;2023-07-20T20:31:54;18.00;;;10.93;;
31061;SDS011;17724;53.546;9.974;2023-07-20T20:35:55;22.27;;;20.07;;
31061;SDS011;17724;53.546;9.974;2023-07-20T20:40:00;15.50;;;5.87;;
31061;SDS011;17724;53.546;9.974;2023-07-20T20:44:01;16.27;;;7.20;;
31061;SDS011;17724;53.546;9.974;2023-07-20T20:48:01;7.73;;;2.20;;
31061;SDS011;17724;53.546;9.974;2023-07-20T20:52:05;9.60;;;3.37;;
31061;SDS011;17724;53.546;9.974;2023-07-20T20:56:07;6.90;;;2.10;;
31061;SDS011;17724;53.546;9.974;2023-07-20T21:00:08;5.83;;;1.50;;
31061;SDS011;17724;53.546;9.974;2023-07-20T21:04:09;7.30;;;3.13;;
31061;SDS011;17724;53.546;9.974;2023-07-20T21:08:10;5.10;;;1.60;;
31061;SDS011;17724;53.546;9.974;2023-07-20T21:12:10;5.00;;;1.77;;
31061;SDS011;17724;53.546;9.974;2023-07-20T21:16:11;6.77;;;1.53;;
31061;SDS011;17724;53.546;9.974;2023-07-20T21:20:11;5.00;;;1.60;;
31061;SDS011;17724;53.546;9.974;2023-07-20T21:24:12;4.87;;;1.40;;
31061;SDS011;17724;53.546;9.974;2023-07-20T21:28:12;6.37;;;1.50;;
31061;SDS011;17724;53.546;9.974;2023-07-20T21:32:13;5.40;;;2.03;;
31061;SDS011;17724;53.546;9.974;2023-07-20T21:36:13;6.73;;;1.50;;
31061;SDS011;17724;53.546;9.974;2023-07-20T21:40:14;5.67;;;1.50;;
31061;SDS011;17724;53.546;9.974;2023-07-20T21:44:15;6.13;;;1.73;;
31061;SDS011;17724;53.546;9.974;2023-07-20T21:48:15;9.50;;;2.10;;
31061;SDS011;17724;53.546;9.974;2023-07-20T21:52:16;7.17;;;1.80;;
31061;SDS011;17724;53.546;9.974;2023-07-20T21:56:17;4.77;;;1.73;;
31061;SDS011;17724;53.546;9.974;2023-07-20T22:00:18;6.50;;;2.10;;
31061;SDS011;17724;53.546;9.974;2023-07-20T22:04:19;6.27;;;2.30;;
31061;SDS011;17724;53.546;9.974;2023-07-20T22:08:20;5.33;;;2.70;;
31061;SDS011;17724;53.546;9.974;2023-07-20T22:12:20;6.40;;;1.87;;
31061;SDS011;17724;53.546;9.974;2023-07-20T22:16:20;4.40;;;1.40;;
31061;SDS011;17724;53.546;9.974;2023-07-20T22:20:21;4.87;;;1.50;;
31061;SDS011;17724;53.546;9.974;2023-07-20T22:24:21;7.73;;;2.10;;
31061;SDS011;17724;53.546;9.974;2023-07-20T22:28:22;5.47;;;1.63;;
31061;SDS011;17724;53.546;9.974;2023-07-20T22:32:22;5.90;;;2.00;;
31061;SDS011;17724;53.546;9.974;2023-07-20T22:36:23;4.97;;;2.17;;
31061;SDS011;17724;53.546;9.974;2023-07-20T22:40:23;5.27;;;1.70;;
31061;SDS011;17724;53.546;9.974;2023-07-20T22:44:24;4.50;;;1.53;;
31061;SDS011;17724;53.546;9.974;2023-07-20T22:48:24;5.87;;;1.93;;
31061;SDS011;17724;53.546;9.974;2023-07-20T22:52:27;4.80;;;1.60;;
31061;SDS011;17724;53.546;9.974;2023-07-20T22:56:28;4.83;;;1.30;;
31061;SDS011;17724;53.546;9.974;2023-07-20T23:00:29;4.77;;;1.33;;
31061;SDS011;17724;53.546;9.974;2023-07-20T23:04:31;4.60;;;1.40;;
31061;SDS011;17724;53.546;9.974;2023-07-20T23:08:31;4.90;;;1.73;;
31061;SDS011;17724;53.546;9.974;2023-07-20T23:12:33;5.30;;;1.67;;
31061;SDS011;17724;53.546;9.974;2023-07-20T23:16:33;6.50;;;1.70;;
31061;SDS011;17724;53.546;9.974;2023-07-20T23:20:34;5.80;;;2.20;;
31061;SDS011;17724;53.546;9.974;2023-07-20T23:24:34;5.53;;;1.90;;
31061;SDS011;17724;53.546;9.974;2023-07-20T23:28:35;5.37;;;1.63;;
31061;SDS011;17724;53.546;9.974;2023-07-20T23:32:35;5.40;;;1.73;;
31061;SDS011;17724;53.546;9.974;2023-07-20T23:36:36;4.80;;;1.60;;
31061;SDS011;17724;53.546;9.974;2023-07-20T23:40:37;4.50;;;1.40;;
31061;SDS011;17724;53.546;9.974;2023-07-20T23:44:37;5.50;;;2.20;;
31061;SDS011;17724;53.546;9.974;2023-07-20T23:48:39;4.90;;;1.70;;
31061;SDS011;17724;53.546;9.974;2023-07-20T23:52:40;5.40;;;1.50;;
31061;SDS011;17724;53.546;9.974;2023-07-20T23:56:41;4.70;;;1.40;;
